createdAt,value
2023-04-28T00:01:30.461Z,100744.34
2023-04-28T00:03:58.838Z,100743.64
2023-04-28T00:06:26.746Z,100739.96
2023-04-28T00:08:53.332Z,100740.93
2023-04-28T00:11:19.864Z,100737.59
2023-04-28T00:13:46.481Z,100737.10
2023-04-28T00:16:13.109Z,100736.83
2023-04-28T00:18:40.086Z,100733.05
2023-04-28T00:21:07.458Z,100733.38
2023-04-28T00:23:34.107Z,100733.53
2023-04-28T00:26:01.063Z,100732.29
2023-04-28T00:28:34.070Z,100728.98
2023-04-28T00:31:01.972Z,100730.02
2023-04-28T00:33:28.593Z,100731.86
2023-04-28T00:36:01.485Z,100733.76
2023-04-28T00:38:28.714Z,100731.42
2023-04-28T00:40:56.073Z,100729.54
2023-04-28T00:43:23.053Z,100731.69
2023-04-28T00:45:51.013Z,100731.58
2023-04-28T00:48:19.018Z,100729.83
2023-04-28T00:50:47.538Z,100731.63
2023-04-28T00:53:14.339Z,100734.61
2023-04-28T00:55:40.973Z,100736.77
2023-04-28T00:58:08.470Z,100738.38
2023-04-28T01:00:35.316Z,100740.39
2023-04-28T01:03:02.178Z,100737.35
2023-04-28T01:05:32.388Z,100732.16
2023-04-28T01:07:59.003Z,100735.43
2023-04-28T01:10:25.556Z,100735.63
2023-04-28T01:12:52.861Z,100732.52
2023-04-28T01:15:20.658Z,100739.92
2023-04-28T01:17:48.485Z,100739.93
2023-04-28T01:20:15.641Z,100744.59
2023-04-28T01:22:42.423Z,100741.92
2023-04-28T01:25:09.556Z,100739.20
2023-04-28T01:27:36.145Z,100742.29
2023-04-28T01:30:02.815Z,100745.23
2023-04-28T01:32:29.637Z,100745.30
2023-04-28T01:34:56.532Z,100743.27
2023-04-28T01:37:23.244Z,100742.33
2023-04-28T01:39:49.774Z,100742.08
2023-04-28T01:42:16.330Z,100743.17
2023-04-28T01:44:43.142Z,100743.30
2023-04-28T01:47:11.061Z,100748.11
2023-04-28T01:49:37.646Z,100750.56
2023-04-28T01:52:07.729Z,100759.03
2023-04-28T01:54:34.885Z,100761.30
2023-04-28T01:57:02.952Z,100759.15
2023-04-28T01:59:30.426Z,100759.61
2023-04-28T02:01:57.344Z,100759.97
2023-04-28T02:04:24.199Z,100758.77
2023-04-28T02:06:50.759Z,100758.14
2023-04-28T02:09:17.399Z,100757.42
2023-04-28T02:11:43.924Z,100761.54
2023-04-28T02:14:10.732Z,100759.10
2023-04-28T02:16:54.055Z,100761.18
2023-04-28T02:19:20.702Z,100760.89
2023-04-28T02:21:47.204Z,100757.00
2023-04-28T02:24:14.344Z,100759.73
2023-04-28T02:26:41.380Z,100759.50
2023-04-28T02:29:07.952Z,100760.75
2023-04-28T02:31:34.569Z,100761.89
2023-04-28T02:34:04.435Z,100761.12
2023-04-28T02:36:32.476Z,100762.26
2023-04-28T02:38:59.051Z,100764.83
2023-04-28T02:41:27.134Z,100761.56
2023-04-28T02:43:53.806Z,100767.13
2023-04-28T02:46:20.836Z,100767.92
2023-04-28T02:48:47.427Z,100767.00
2023-04-28T02:51:14.276Z,100765.55
2023-04-28T02:53:41.204Z,100769.21
2023-04-28T02:56:07.966Z,100768.90
2023-04-28T02:58:34.713Z,100772.61
2023-04-28T03:01:01.694Z,100772.38
2023-04-28T03:03:28.629Z,100772.65
2023-04-28T03:05:57.044Z,100771.90
2023-04-28T03:08:23.843Z,100773.86
2023-04-28T03:10:50.437Z,100771.40
2023-04-28T03:13:16.947Z,100770.65
2023-04-28T03:15:43.560Z,100768.65
2023-04-28T03:18:10.175Z,100769.45
2023-04-28T03:20:37.374Z,100769.04
2023-04-28T03:23:04.536Z,100773.66
2023-04-28T03:25:31.375Z,100778.59
2023-04-28T03:27:57.919Z,100780.71
2023-04-28T03:30:25.085Z,100784.16
2023-04-28T03:32:51.694Z,100790.05
2023-04-28T03:35:18.549Z,100794.05
2023-04-28T03:37:45.147Z,100791.30
2023-04-28T03:40:12.594Z,100785.70
2023-04-28T03:42:58.358Z,100786.83
2023-04-28T03:45:33.173Z,100786.24
2023-04-28T03:47:59.811Z,100790.35
2023-04-28T03:50:26.889Z,100790.66
2023-04-28T03:52:54.082Z,100787.16
2023-04-28T03:55:20.716Z,100787.55
2023-04-28T03:57:47.424Z,100788.14
2023-04-28T04:00:14.329Z,100787.89
2023-04-28T04:02:45.990Z,100788.86
2023-04-28T04:05:12.873Z,100792.27
2023-04-28T04:07:40.422Z,100793.03
2023-04-28T04:10:07.753Z,100793.60
2023-04-28T04:12:34.918Z,100793.92
2023-04-28T04:15:01.586Z,100793.13
2023-04-28T04:17:28.558Z,100790.03
2023-04-28T04:19:55.493Z,100792.34
2023-04-28T04:22:22.070Z,100792.14
2023-04-28T04:24:48.675Z,100796.66
2023-04-28T04:27:15.644Z,100795.64
2023-04-28T04:29:42.594Z,100798.69
2023-04-28T04:32:14.191Z,100800.33
2023-04-28T04:34:41.531Z,100803.23
2023-04-28T04:37:09.570Z,100797.89
2023-04-28T04:39:40.647Z,100798.55
2023-04-28T04:42:23.429Z,100801.80
2023-04-28T04:45:08.964Z,100810.35
2023-04-28T04:47:35.907Z,100805.45
2023-04-28T04:50:02.807Z,100805.23
2023-04-28T04:52:29.629Z,100813.66
2023-04-28T04:54:56.595Z,100812.98
2023-04-28T04:57:23.946Z,100814.76
2023-04-28T05:00:06.104Z,100814.65
2023-04-28T05:02:32.851Z,100814.88
2023-04-28T05:05:12.254Z,100817.28
2023-04-28T05:07:47.790Z,100817.20
2023-04-28T05:10:17.351Z,100814.84
2023-04-28T05:12:46.820Z,100817.61
2023-04-28T05:15:19.437Z,100816.34
2023-04-28T05:18:06.575Z,100818.77
2023-04-28T05:20:33.540Z,100819.14
2023-04-28T05:23:00.141Z,100822.65
2023-04-28T05:25:26.742Z,100823.61
2023-04-28T05:27:56.066Z,100820.02
2023-04-28T05:30:22.785Z,100821.89
2023-04-28T05:32:49.784Z,100825.77
2023-04-28T05:35:16.708Z,100822.74
2023-04-28T05:37:45.128Z,100822.89
2023-04-28T05:40:12.239Z,100823.60
2023-04-28T05:42:39.629Z,100819.98
2023-04-28T05:45:07.631Z,100822.35
2023-04-28T05:47:34.559Z,100824.29
2023-04-28T05:50:01.212Z,100820.79
2023-04-28T05:52:28.198Z,100819.02
2023-04-28T05:54:54.847Z,100819.80
2023-04-28T05:57:21.621Z,100821.98
2023-04-28T05:59:48.681Z,100823.77
2023-04-28T06:02:15.500Z,100828.33
2023-04-28T06:04:42.923Z,100828.30
2023-04-28T06:07:10.168Z,100830.69
2023-04-28T06:09:38.358Z,100831.52
2023-04-28T06:12:05.584Z,100829.19
2023-04-28T06:14:32.540Z,100830.87
2023-04-28T06:16:59.184Z,100829.48
2023-04-28T06:19:26.152Z,100830.77
2023-04-28T06:21:53.205Z,100829.86
2023-04-28T06:24:20.092Z,100830.33
2023-04-28T06:26:47.283Z,100833.12
2023-04-28T06:29:13.973Z,100830.20
2023-04-28T06:31:40.680Z,100832.52
2023-04-28T06:34:07.554Z,100834.84
2023-04-28T06:36:36.027Z,100839.92
2023-04-28T06:39:03.948Z,100839.12
2023-04-28T06:41:31.973Z,100835.92
2023-04-28T06:43:59.641Z,100837.76
2023-04-28T06:46:34.305Z,100838.30
2023-04-28T06:49:01.182Z,100834.54
2023-04-28T06:51:28.850Z,100835.80
2023-04-28T06:53:55.810Z,100834.60
2023-04-28T06:56:22.444Z,100834.55
2023-04-28T06:58:49.737Z,100838.57
2023-04-28T07:01:17.354Z,100838.91
2023-04-28T07:03:44.272Z,100838.90
2023-04-28T07:06:11.510Z,100834.86
2023-04-28T07:08:38.214Z,100833.20
2023-04-28T07:11:05.173Z,100832.30
2023-04-28T07:13:33.802Z,100827.29
2023-04-28T07:16:01.296Z,100829.19
2023-04-28T07:18:28.857Z,100832.06
2023-04-28T07:20:55.980Z,100829.83
2023-04-28T07:23:22.800Z,100827.19
2023-04-28T07:25:49.652Z,100825.56
2023-04-28T07:28:16.365Z,100822.95
2023-04-28T07:30:43.094Z,100822.81
2023-04-28T07:33:09.857Z,100816.21
2023-04-28T07:35:36.705Z,100817.39
2023-04-28T07:38:06.535Z,100817.02
2023-04-28T07:40:33.278Z,100817.02
2023-04-28T07:43:00.056Z,100812.95
2023-04-28T07:45:27.320Z,100813.27
2023-04-28T07:47:54.121Z,100805.85
2023-04-28T07:50:21.316Z,100808.79
2023-04-28T07:52:48.070Z,100801.17
2023-04-28T07:55:14.849Z,100796.39
2023-04-28T07:57:42.500Z,100800.48
2023-04-28T08:00:09.838Z,100801.45
2023-04-28T08:02:39.660Z,100797.15
2023-04-28T08:05:09.097Z,100792.22
2023-04-28T08:07:37.335Z,100791.49
2023-04-28T08:10:04.898Z,100790.54
2023-04-28T08:12:32.803Z,100793.70
2023-04-28T08:14:59.634Z,100786.98
2023-04-28T08:17:26.960Z,100787.92
2023-04-28T08:19:53.991Z,100787.40
2023-04-28T08:22:21.436Z,100788.39
2023-04-28T08:24:48.267Z,100789.30
2023-04-28T08:27:15.211Z,100786.46
2023-04-28T08:29:44.641Z,100781.48
2023-04-28T08:32:11.596Z,100782.03
2023-04-28T08:34:38.317Z,100784.80
2023-04-28T08:37:05.170Z,100782.08
2023-04-28T08:39:34.110Z,100778.56
2023-04-28T08:42:04.819Z,100777.34
2023-04-28T08:44:39.154Z,100776.64
2023-04-28T08:47:14.144Z,100778.64
2023-04-28T08:49:41.712Z,100777.64
2023-04-28T08:52:13.518Z,100772.30
2023-04-28T08:54:41.617Z,100772.48
2023-04-28T08:57:11.416Z,100768.44
2023-04-28T08:59:41.886Z,100768.14
2023-04-28T09:02:09.618Z,100767.55
2023-04-28T09:04:37.277Z,100765.44
2023-04-28T09:07:04.485Z,100767.58
2023-04-28T09:09:34.216Z,100765.23
2023-04-28T09:12:04.780Z,100765.27
2023-04-28T09:14:34.643Z,100764.89
2023-04-28T09:17:02.944Z,100765.12
2023-04-28T09:19:36.922Z,100761.29
2023-04-28T09:22:17.639Z,100756.95
2023-04-28T09:24:53.234Z,100753.33
2023-04-28T09:27:27.245Z,100752.48
2023-04-28T09:29:54.791Z,100752.00
2023-04-28T09:32:23.350Z,100748.48
2023-04-28T09:34:52.139Z,100743.16
2023-04-28T09:37:20.170Z,100742.81
2023-04-28T09:39:49.508Z,100747.03
2023-04-28T09:42:36.495Z,100746.30
2023-04-28T09:45:08.595Z,100739.89
2023-04-28T09:47:39.910Z,100738.33
2023-04-28T09:50:11.117Z,100737.57
2023-04-28T09:52:38.036Z,100735.77
2023-04-28T09:55:08.834Z,100733.26
2023-04-28T09:57:36.885Z,100733.91
2023-04-28T10:00:06.751Z,100726.98
2023-04-28T10:05:09.912Z,100720.23
2023-04-28T10:07:37.686Z,100717.62
2023-04-28T10:10:05.457Z,100713.02
2023-04-28T10:12:33.223Z,100710.40
2023-04-28T10:15:00.427Z,100707.02
2023-04-28T10:17:29.416Z,100705.38
2023-04-28T10:19:57.243Z,100701.27
2023-04-28T10:22:40.393Z,100697.70
2023-04-28T10:25:12.981Z,100694.92
2023-04-28T10:27:47.650Z,100694.80
2023-04-28T10:30:27.957Z,100693.10
2023-04-28T10:33:14.331Z,100690.36
2023-04-28T10:35:46.332Z,100685.36
2023-04-28T10:38:17.807Z,100682.59
2023-04-28T10:40:49.247Z,100683.45
2023-04-28T10:43:28.718Z,100680.67
2023-04-28T10:46:16.211Z,100679.24
2023-04-28T10:48:48.876Z,100676.69
2023-04-28T10:51:15.600Z,100671.77
2023-04-28T10:53:45.461Z,100669.86
2023-04-28T10:56:27.196Z,100672.23
2023-04-28T10:58:55.344Z,100668.91
2023-04-28T11:01:22.307Z,100662.58
2023-04-28T11:04:00.718Z,100659.15
2023-04-28T11:06:42.273Z,100659.44
2023-04-28T11:09:17.717Z,100660.39
2023-04-28T11:11:59.676Z,100661.41
2023-04-28T11:14:26.218Z,100662.16
2023-04-28T11:16:55.512Z,100660.45
2023-04-28T11:19:24.474Z,100657.20
2023-04-28T11:21:52.978Z,100657.20
2023-04-28T11:24:20.588Z,100651.48
2023-04-28T11:26:47.653Z,100640.46
2023-04-28T11:29:17.942Z,100639.86
2023-04-28T11:31:51.723Z,100638.91
2023-04-28T11:34:22.484Z,100633.41
2023-04-28T11:36:49.225Z,100638.29
2023-04-28T11:39:16.315Z,100639.13
2023-04-28T11:41:46.716Z,100635.06
2023-04-28T11:44:15.398Z,100635.13
2023-04-28T11:46:45.096Z,100635.31
2023-04-28T11:49:11.899Z,100639.99
2023-04-28T11:51:39.485Z,100635.58
2023-04-28T11:54:12.050Z,100634.63
2023-04-28T11:56:39.988Z,100632.69
2023-04-28T11:59:09.395Z,100625.09
2023-04-28T12:01:49.664Z,100620.31
2023-04-28T12:04:35.970Z,100614.89
2023-04-28T12:07:10.997Z,100611.14
2023-04-28T12:09:43.199Z,100607.98
2023-04-28T12:12:40.204Z,100616.83
2023-04-28T12:15:18.055Z,100622.23
2023-04-28T12:17:46.275Z,100624.53
2023-04-28T12:20:39.487Z,100621.73
2023-04-28T12:23:07.862Z,100615.77
2023-04-28T12:25:43.667Z,100614.31
2023-04-28T12:28:10.901Z,100606.42
2023-04-28T12:30:39.183Z,100604.55
2023-04-28T12:33:05.952Z,100599.83
2023-04-28T12:35:33.284Z,100597.86
2023-04-28T12:38:00.342Z,100597.52
2023-04-28T12:40:27.231Z,100594.08
2023-04-28T12:42:54.180Z,100592.48
2023-04-28T12:45:20.835Z,100587.53
2023-04-28T12:47:48.659Z,100577.52
2023-04-28T12:50:15.588Z,100576.19
2023-04-28T12:52:42.440Z,100568.14
2023-04-28T12:55:09.540Z,100568.48
2023-04-28T12:57:39.665Z,100571.70
2023-04-28T13:00:08.285Z,100572.21
2023-04-28T13:02:35.466Z,100566.48
2023-04-28T13:05:03.073Z,100565.95
2023-04-28T13:07:30.659Z,100563.12
2023-04-28T13:10:02.140Z,100567.75
2023-04-28T13:12:28.802Z,100566.64
2023-04-28T13:14:55.345Z,100567.94
2023-04-28T13:17:22.724Z,100563.48
2023-04-28T13:19:49.313Z,100560.38
2023-04-28T13:22:16.141Z,100557.20
2023-04-28T13:24:43.048Z,100558.69
2023-04-28T13:27:10.352Z,100557.06
2023-04-28T13:29:38.028Z,100549.91
2023-04-28T13:32:07.873Z,100549.41
2023-04-28T13:34:34.624Z,100544.73
2023-04-28T13:37:01.237Z,100540.73
2023-04-28T13:39:27.895Z,100541.20
2023-04-28T13:41:54.542Z,100535.86
2023-04-28T13:44:21.531Z,100535.02
2023-04-28T13:46:48.811Z,100538.67
2023-04-28T13:49:15.443Z,100538.20
2023-04-28T13:51:42.801Z,100535.35
2023-04-28T13:54:11.268Z,100535.16
2023-04-28T13:56:38.448Z,100529.02
2023-04-28T13:59:05.073Z,100525.09
2023-04-28T14:01:31.786Z,100523.71
2023-04-28T14:03:58.636Z,100522.83
2023-04-28T14:06:27.520Z,100523.07
2023-04-28T14:08:54.178Z,100516.55
2023-04-28T14:11:20.842Z,100514.31
2023-04-28T14:13:47.464Z,100512.82
2023-04-28T14:16:14.255Z,100511.80
2023-04-28T14:18:41.384Z,100513.73
2023-04-28T14:21:08.397Z,100507.95
2023-04-28T14:23:35.686Z,100504.11
2023-04-28T14:26:02.575Z,100506.17
2023-04-28T14:28:29.491Z,100508.83
2023-04-28T14:30:56.617Z,100503.39
2023-04-28T14:33:23.830Z,100499.96
2023-04-28T14:35:50.523Z,100497.60
2023-04-28T14:38:17.343Z,100496.45
2023-04-28T14:40:44.201Z,100493.78
2023-04-28T14:43:10.985Z,100490.55
2023-04-28T14:45:38.650Z,100491.88
2023-04-28T14:48:07.184Z,100491.67
2023-04-28T14:50:34.421Z,100488.87
2023-04-28T14:53:05.736Z,100484.98
2023-04-28T14:55:33.345Z,100485.98
2023-04-28T14:58:00.255Z,100482.31
2023-04-28T15:00:26.910Z,100483.08
2023-04-28T15:02:54.272Z,100478.81
2023-04-28T15:05:21.174Z,100478.36
2023-04-28T15:07:48.025Z,100474.58
2023-04-28T15:10:15.470Z,100474.85
2023-04-28T15:12:42.877Z,100466.33
2023-04-28T15:15:10.225Z,100469.67
2023-04-28T15:17:36.887Z,100469.01
2023-04-28T15:20:04.678Z,100465.20
2023-04-28T15:22:31.246Z,100461.63
2023-04-28T15:24:57.846Z,100465.52
2023-04-28T15:27:24.486Z,100464.15
2023-04-28T15:29:51.464Z,100461.17
2023-04-28T15:32:18.277Z,100457.63
2023-04-28T15:34:45.067Z,100455.57
2023-04-28T15:37:41.477Z,100453.45
2023-04-28T15:40:11.431Z,100454.46
2023-04-28T15:42:39.296Z,100452.73
2023-04-28T15:45:06.914Z,100455.61
2023-04-28T15:47:33.681Z,100448.05
2023-04-28T15:50:00.455Z,100445.66
2023-04-28T15:52:27.578Z,100448.08
2023-04-28T15:54:57.366Z,100442.33
2023-04-28T15:57:24.288Z,100440.01
2023-04-28T15:59:51.764Z,100437.55
2023-04-28T16:02:19.226Z,100436.98
2023-04-28T16:04:47.036Z,100435.30
2023-04-28T16:07:14.237Z,100435.48
2023-04-28T16:09:41.101Z,100434.21
2023-04-28T16:12:07.661Z,100434.09
2023-04-28T16:14:34.953Z,100436.02
2023-04-28T16:17:01.572Z,100438.31
2023-04-28T16:19:29.297Z,100439.30
2023-04-28T16:21:55.884Z,100439.95
2023-04-28T16:24:22.805Z,100434.77
2023-04-28T16:26:51.137Z,100432.03
2023-04-28T16:29:17.841Z,100431.98
2023-04-28T16:31:45.130Z,100430.63
2023-04-28T16:34:12.367Z,100427.73
2023-04-28T16:36:40.175Z,100429.03
2023-04-28T16:39:07.975Z,100428.58
2023-04-28T16:41:34.581Z,100426.92
2023-04-28T16:44:01.615Z,100424.09
2023-04-28T16:46:28.333Z,100420.41
2023-04-28T16:48:55.199Z,100420.57
2023-04-28T16:51:22.198Z,100420.10
2023-04-28T16:53:48.796Z,100418.22
2023-04-28T16:56:15.567Z,100414.84
2023-04-28T16:58:42.445Z,100414.02
2023-04-28T17:01:09.563Z,100413.61
2023-04-28T17:03:41.453Z,100408.64
2023-04-28T17:06:09.078Z,100409.08
2023-04-28T17:08:35.930Z,100407.46
2023-04-28T17:11:04.759Z,100406.33
2023-04-28T17:13:32.943Z,100405.52
2023-04-28T17:16:00.200Z,100401.36
2023-04-28T17:18:27.432Z,100403.36
2023-04-28T17:20:54.475Z,100401.35
2023-04-28T17:23:21.118Z,100400.87
2023-04-28T17:25:47.875Z,100400.05
2023-04-28T17:28:14.457Z,100399.29
2023-04-28T17:30:43.779Z,100403.95
2023-04-28T17:33:12.447Z,100403.41
2023-04-28T17:35:39.559Z,100401.94
2023-04-28T17:38:06.669Z,100400.99
2023-04-28T17:40:33.579Z,100397.48
2023-04-28T17:43:00.295Z,100393.27
2023-04-28T17:45:27.059Z,100394.82
2023-04-28T17:47:53.761Z,100391.88
2023-04-28T17:50:20.510Z,100390.56
2023-04-28T17:52:47.079Z,100389.82
2023-04-28T17:55:14.159Z,100390.02
2023-04-28T17:57:40.949Z,100388.66
2023-04-28T18:00:08.438Z,100389.13
2023-04-28T18:02:38.722Z,100392.52
2023-04-28T18:05:06.205Z,100391.35
2023-04-28T18:07:32.920Z,100393.20
2023-04-28T18:10:01.473Z,100394.91
2023-04-28T18:12:28.277Z,100399.10
2023-04-28T18:14:55.075Z,100397.42
2023-04-28T18:17:23.336Z,100397.90
2023-04-28T18:19:52.311Z,100397.82
2023-04-28T18:22:18.999Z,100397.22
2023-04-28T18:24:46.078Z,100400.22
2023-04-28T18:27:12.667Z,100400.19
2023-04-28T18:29:39.326Z,100398.44
2023-04-28T18:32:06.909Z,100395.84
2023-04-28T18:34:33.667Z,100398.10
2023-04-28T18:37:00.408Z,100397.67
2023-04-28T18:39:27.521Z,100399.23
2023-04-28T18:41:54.336Z,100403.54
2023-04-28T18:44:21.147Z,100402.17
2023-04-28T18:46:47.782Z,100401.66
2023-04-28T18:49:14.709Z,100403.52
2023-04-28T18:51:41.758Z,100405.54
2023-04-28T18:54:08.704Z,100405.40
2023-04-28T18:56:36.685Z,100404.86
2023-04-28T18:59:04.625Z,100402.21
2023-04-28T19:01:31.605Z,100399.85
2023-04-28T19:03:58.601Z,100395.91
2023-04-28T19:06:25.634Z,100390.81
2023-04-28T19:08:52.459Z,100393.27
2023-04-28T19:11:19.155Z,100393.17
2023-04-28T19:13:45.838Z,100396.67
2023-04-28T19:16:12.762Z,100393.11
2023-04-28T19:18:39.909Z,100392.15
2023-04-28T19:21:06.681Z,100386.23
2023-04-28T19:23:33.794Z,100389.94
2023-04-28T19:26:01.921Z,100387.13
2023-04-28T19:28:29.529Z,100384.38
2023-04-28T19:30:58.132Z,100385.89
2023-04-28T19:33:27.962Z,100383.23
2023-04-28T19:35:55.196Z,100386.77
2023-04-28T19:38:23.380Z,100387.98
2023-04-28T19:40:51.052Z,100388.75
2023-04-28T19:43:18.155Z,100384.33
2023-04-28T19:45:46.716Z,100380.85
2023-04-28T19:48:14.482Z,100382.48
2023-04-28T19:50:42.350Z,100382.98
2023-04-28T19:53:09.450Z,100384.84
2023-04-28T19:55:36.872Z,100383.15
2023-04-28T19:58:04.141Z,100383.81
2023-04-28T20:00:33.019Z,100381.33
2023-04-28T20:03:00.392Z,100386.79
2023-04-28T20:05:27.590Z,100384.24
2023-04-28T20:07:56.274Z,100387.83
2023-04-28T20:10:24.224Z,100388.13
2023-04-28T20:12:51.076Z,100385.13
2023-04-28T20:15:18.356Z,100388.03
2023-04-28T20:17:46.153Z,100388.70
2023-04-28T20:20:13.369Z,100388.06
2023-04-28T20:22:41.201Z,100388.70
2023-04-28T20:25:10.634Z,100385.84
2023-04-28T20:27:37.690Z,100387.39
2023-04-28T20:30:04.987Z,100389.44
2023-04-28T20:32:31.802Z,100391.33
2023-04-28T20:34:59.060Z,100386.79
2023-04-28T20:37:26.605Z,100388.41
2023-04-28T20:39:53.667Z,100389.37
2023-04-28T20:42:20.372Z,100389.90
2023-04-28T20:44:47.154Z,100386.95
2023-04-28T20:47:14.105Z,100387.73
2023-04-28T20:49:41.994Z,100382.45
2023-04-28T20:52:09.139Z,100378.48
2023-04-28T20:54:36.542Z,100377.81
2023-04-28T20:57:04.888Z,100379.33
2023-04-28T20:59:32.797Z,100378.44
2023-04-28T21:02:00.454Z,100375.00
2023-04-28T21:04:28.442Z,100374.41
2023-04-28T21:06:55.889Z,100373.02
2023-04-28T21:09:25.496Z,100371.40
2023-04-28T21:11:52.977Z,100374.66
2023-04-28T21:14:20.296Z,100373.23
2023-04-28T21:16:47.361Z,100375.48
2023-04-28T21:19:14.253Z,100378.33
2023-04-28T21:21:41.319Z,100378.11
2023-04-28T21:24:09.341Z,100375.17
2023-04-28T21:26:37.107Z,100372.39
2023-04-28T21:29:04.154Z,100374.40
2023-04-28T21:31:31.374Z,100373.35
2023-04-28T21:33:58.061Z,100374.20
2023-04-28T21:36:24.690Z,100373.31
2023-04-28T21:38:51.959Z,100377.15
2023-04-28T21:41:20.607Z,100378.42
2023-04-28T21:43:47.388Z,100377.92
2023-04-28T21:46:15.280Z,100372.26
2023-04-28T21:48:41.918Z,100372.86
2023-04-28T21:51:09.147Z,100373.75
2023-04-28T21:53:36.637Z,100372.92
2023-04-28T21:56:06.977Z,100367.58
2023-04-28T21:58:35.966Z,100366.48
2023-04-28T22:01:05.371Z,100367.77
2023-04-28T22:03:35.199Z,100368.99
2023-04-28T22:06:02.457Z,100369.45
2023-04-28T22:08:31.198Z,100368.92
2023-04-28T22:10:58.338Z,100367.96
2023-04-28T22:13:24.954Z,100368.60
2023-04-28T22:15:52.135Z,100365.01
2023-04-28T22:18:19.492Z,100363.31
2023-04-28T22:20:46.858Z,100359.75
2023-04-28T22:23:13.964Z,100360.04
2023-04-28T22:25:40.623Z,100360.80
2023-04-28T22:28:07.354Z,100358.16
2023-04-28T22:30:34.300Z,100355.00
2023-04-28T22:33:01.483Z,100354.98
2023-04-28T22:35:28.290Z,100356.39
2023-04-28T22:37:54.919Z,100357.02
2023-04-28T22:40:21.696Z,100355.00
2023-04-28T22:42:48.363Z,100355.50
2023-04-28T22:45:15.012Z,100358.70
2023-04-28T22:47:41.871Z,100353.45
2023-04-28T22:50:10.609Z,100357.45
2023-04-28T22:52:37.445Z,100356.12
2023-04-28T22:55:04.810Z,100351.96
2023-04-28T22:57:31.516Z,100352.55
2023-04-28T22:59:58.167Z,100352.65
2023-04-28T23:02:25.516Z,100349.75
2023-04-28T23:04:52.324Z,100348.42
2023-04-28T23:07:19.117Z,100346.30
2023-04-28T23:09:45.781Z,100344.64
2023-04-28T23:12:12.448Z,100346.78
2023-04-28T23:14:39.051Z,100347.52
2023-04-28T23:17:05.927Z,100344.02
2023-04-28T23:19:32.554Z,100342.91
2023-04-28T23:21:59.188Z,100345.50
2023-04-28T23:24:27.242Z,100342.55
2023-04-28T23:26:56.631Z,100340.11
2023-04-28T23:29:23.228Z,100337.58
2023-04-28T23:31:54.509Z,100340.56
2023-04-28T23:34:22.620Z,100335.35
2023-04-28T23:36:50.122Z,100336.20
2023-04-28T23:39:16.984Z,100336.46
2023-04-28T23:41:43.598Z,100336.15
2023-04-28T23:44:10.185Z,100333.91
2023-04-28T23:46:36.747Z,100327.55
2023-04-28T23:49:03.766Z,100327.25
2023-04-28T23:51:30.811Z,100323.95
2023-04-28T23:53:57.389Z,100321.96
2023-04-28T23:56:24.049Z,100319.26
2023-04-28T23:58:51.175Z,100320.23
